Time;durP1;ratioP1;P1;durP2;ratioP2;P2;SDS_P1;SDS_P2;PMS_P1;PMS_P2;Temp;Humidity;BMP_temperature;BMP_pressure;BME280_temperature;BME280_humidity;BME280_pressure;Samples;Min_cycle;Max_cycle;Signal;HPM_P1;HPM_P2
2024/03/07 05:02:41;;;;;;;12.77;4.37;;;5.50;97.30;;;;;;5049856;23;20575;-87
2024/03/07 05:05:07;;;;;;;10.37;4.27;;;5.50;97.30;;;;;;4976080;28;20543;-87
2024/03/07 05:07:33;;;;;;;19.63;4.20;;;5.50;97.30;;;;;;4975991;28;20452;-86
2024/03/07 05:09:58;;;;;;;6.67;5.00;;;5.50;97.30;;;;;;4966029;28;20445;-87
2024/03/07 05:12:24;;;;;;;10.10;5.37;;;5.50;97.30;;;;;;4949092;28;20234;-87
2024/03/07 05:14:49;;;;;;;6.07;4.47;;;5.50;97.30;;;;;;4948687;28;20202;-84
2024/03/07 05:17:15;;;;;;;5.67;4.80;;;5.40;97.30;;;;;;4953284;28;20562;-87
2024/03/07 05:19:50;;;;;;;17.63;7.23;;;5.40;97.30;;;;;;4957173;28;20186;-86
2024/03/07 05:22:17;;;;;;;5.70;5.17;;;5.40;97.30;;;;;;4957760;28;20441;-87
2024/03/07 05:24:43;;;;;;;6.70;5.53;;;5.40;97.30;;;;;;4961310;28;20612;-85
2024/03/07 05:27:11;;;;;;;4.00;2.90;;;5.30;97.30;;;;;;4956547;28;21025;-88
2024/03/07 05:29:38;;;;;;;5.43;5.17;;;5.30;97.30;;;;;;4955699;28;20457;-87
2024/03/07 05:32:26;;;;;;;4.90;3.87;;;5.20;97.30;;;;;;4953358;28;20460;-87
2024/03/07 05:34:55;;;;;;;7.30;3.70;;;5.20;97.30;;;;;;4968904;28;20426;-87
2024/03/07 05:37:24;;;;;;;5.50;4.00;;;5.10;97.30;;;;;;4949981;28;20961;-86
2024/03/07 05:39:50;;;;;;;11.77;6.70;;;5.10;97.30;;;;;;4953219;28;20433;-89
2024/03/07 05:42:16;;;;;;;6.93;3.77;;;5.10;97.30;;;;;;4957120;28;20806;-87
2024/03/07 05:44:48;;;;;;;7.20;5.00;;;5.00;97.30;;;;;;4953732;28;20935;-87
2024/03/07 05:47:14;;;;;;;5.90;4.63;;;5.00;97.30;;;;;;4950725;28;20614;-88
2024/03/07 05:49:39;;;;;;;9.10;4.37;;;4.90;97.30;;;;;;4953146;28;20434;-86
2024/03/07 05:52:06;;;;;;;4.40;4.10;;;4.90;97.30;;;;;;4948614;28;20822;-86
2024/03/07 05:54:32;;;;;;;10.10;5.63;;;4.80;97.30;;;;;;4951768;28;20449;-85
2024/03/07 05:56:58;;;;;;;8.73;5.30;;;4.80;97.30;;;;;;4955302;28;20488;-86
2024/03/07 05:59:24;;;;;;;7.40;6.33;;;4.70;97.30;;;;;;4954925;28;20421;-87
2024/03/07 06:01:50;;;;;;;4.77;4.47;;;4.70;97.30;;;;;;4954665;28;20293;-87
2024/03/07 06:04:16;;;;;;;23.17;4.73;;;4.70;97.30;;;;;;4953187;28;20189;-85
2024/03/07 06:06:42;;;;;;;8.60;4.83;;;4.70;97.30;;;;;;4956238;28;20422;-86
2024/03/07 06:09:09;;;;;;;3.20;2.90;;;4.70;97.30;;;;;;4952930;28;20178;-87
2024/03/07 06:11:39;;;;;;;9.67;4.70;;;4.70;97.30;;;;;;4953636;28;20430;-87
2024/03/07 06:14:06;;;;;;;5.60;5.27;;;4.70;97.30;;;;;;4956323;28;20422;-87
2024/03/07 06:16:35;;;;;;;6.33;4.47;;;4.70;97.30;;;;;;4956857;28;20426;-88
2024/03/07 06:19:01;;;;;;;9.23;4.77;;;4.70;97.30;;;;;;4956720;28;20425;-87
2024/03/07 06:21:28;;;;;;;3.97;3.77;;;4.80;97.30;;;;;;4960429;28;20453;-87
2024/03/07 06:23:59;;;;;;;6.63;4.70;;;4.80;97.30;;;;;;4953128;28;20430;-88
2024/03/07 06:26:46;;;;;;;16.47;4.07;;;4.70;97.30;;;;;;4962088;28;20430;-87
2024/03/07 06:29:16;;;;;;;5.40;4.77;;;4.70;97.30;;;;;;4959658;28;20460;-87
2024/03/07 06:31:42;;;;;;;10.60;5.47;;;4.70;97.30;;;;;;4953726;28;20971;-86
2024/03/07 06:34:08;;;;;;;8.90;7.73;;;4.70;97.30;;;;;;4961235;28;20916;-87
2024/03/07 06:36:35;;;;;;;4.60;4.37;;;4.70;97.30;;;;;;4957441;28;21037;-87
2024/03/07 06:39:01;;;;;;;5.87;5.17;;;4.80;97.30;;;;;;4957952;28;20591;-87
2024/03/07 06:41:26;;;;;;;10.70;6.03;;;4.70;97.30;;;;;;4959592;28;21008;-86
2024/03/07 06:43:55;;;;;;;9.60;6.30;;;4.70;97.30;;;;;;4956242;28;20182;-87
2024/03/07 06:46:21;;;;;;;7.93;3.87;;;4.60;97.30;;;;;;4961089;28;20433;-87
2024/03/07 06:48:46;;;;;;;6.37;5.10;;;4.60;97.30;;;;;;4961743;28;20493;-86
2024/03/07 06:51:13;;;;;;;10.57;4.70;;;4.60;97.30;;;;;;4959118;28;20446;-87
2024/03/07 06:53:39;;;;;;;6.43;3.60;;;4.60;97.30;;;;;;4959918;28;20187;-86
2024/03/07 06:56:06;;;;;;;21.50;5.17;;;4.60;97.30;;;;;;4960171;28;20422;-86
2024/03/07 06:58:32;;;;;;;16.90;6.43;;;4.60;97.30;;;;;;4959561;28;20981;-87
2024/03/07 07:00:59;;;;;;;9.20;6.80;;;4.50;97.30;;;;;;4956142;28;20951;-87
2024/03/07 07:03:24;;;;;;;7.87;5.93;;;4.40;97.30;;;;;;4959178;28;20444;-85
2024/03/07 07:05:50;;;;;;;7.33;6.47;;;4.50;97.30;;;;;;4954127;28;20468;-87
2024/03/07 07:08:16;;;;;;;9.70;5.50;;;4.60;97.30;;;;;;4956738;28;20242;-87
2024/03/07 07:10:43;;;;;;;19.63;9.40;;;4.70;97.30;;;;;;4954975;28;20438;-86
2024/03/07 07:13:10;;;;;;;6.00;4.27;;;4.70;97.30;;;;;;4959439;28;20209;-88
2024/03/07 07:15:36;;;;;;;5.20;3.80;;;4.70;97.30;;;;;;4959654;28;20421;-87
2024/03/07 07:18:03;;;;;;;7.87;5.37;;;4.80;97.30;;;;;;4956330;28;20481;-86
2024/03/07 07:20:28;;;;;;;5.23;4.17;;;4.80;97.30;;;;;;4956112;28;20433;-87
2024/03/07 07:22:54;;;;;;;12.47;6.07;;;4.90;97.30;;;;;;4958830;28;20434;-87
2024/03/07 07:25:21;;;;;;;4.83;3.70;;;4.90;97.30;;;;;;4956105;28;20725;-87
2024/03/07 07:27:49;;;;;;;9.73;4.90;;;5.00;97.30;;;;;;4958513;28;20473;-86
2024/03/07 07:30:17;;;;;;;4.20;4.00;;;5.00;97.30;;;;;;4955756;28;20733;-85
2024/03/07 07:32:43;;;;;;;14.13;3.93;;;5.00;97.30;;;;;;4957275;28;20438;-87
2024/03/07 07:35:12;;;;;;;6.17;5.33;;;5.00;97.30;;;;;;4959155;28;20433;-86
2024/03/07 07:37:42;;;;;;;10.83;5.53;;;5.00;97.30;;;;;;4955835;28;20534;-86
2024/03/07 07:40:12;;;;;;;17.20;4.43;;;5.10;97.30;;;;;;4956037;28;20425;-87
2024/03/07 07:42:39;;;;;;;5.43;4.57;;;5.20;97.30;;;;;;4958383;28;20454;-86
2024/03/07 07:45:07;;;;;;;7.80;4.23;;;5.20;97.30;;;;;;4955780;28;20430;-86
2024/03/07 07:47:32;;;;;;;10.83;3.30;;;5.20;97.30;;;;;;4953359;28;20463;-85
2024/03/07 07:49:58;;;;;;;4.27;3.30;;;5.30;97.30;;;;;;4955821;28;20466;-88
2024/03/07 07:52:24;;;;;;;2.07;1.93;;;5.30;97.30;;;;;;4955812;28;20229;-86
2024/03/07 07:54:49;;;;;;;8.27;4.03;;;5.30;97.30;;;;;;4955303;28;20548;-87
2024/03/07 07:57:15;;;;;;;2.70;1.97;;;5.30;97.30;;;;;;4959354;28;20240;-86
2024/03/07 07:59:40;;;;;;;3.37;3.20;;;5.30;97.30;;;;;;4951905;28;20189;-86
2024/03/07 08:02:06;;;;;;;3.73;3.53;;;5.40;97.30;;;;;;4955313;28;20720;-87
2024/03/07 08:04:32;;;;;;;4.37;3.23;;;5.40;97.30;;;;;;4956851;28;20178;-87
2024/03/07 08:06:58;;;;;;;3.57;2.60;;;5.40;97.30;;;;;;4955551;28;20273;-86
2024/03/07 08:09:23;;;;;;;1.80;1.70;;;5.40;97.30;;;;;;4955848;28;20510;-87
2024/03/07 08:11:49;;;;;;;3.70;3.00;;;5.30;97.30;;;;;;4955746;28;20222;-86
2024/03/07 08:14:15;;;;;;;9.27;2.87;;;5.30;97.30;;;;;;4956924;28;20182;-86
2024/03/07 08:16:41;;;;;;;3.87;3.20;;;5.20;97.30;;;;;;4955170;28;20430;-86
2024/03/07 08:19:08;;;;;;;8.57;4.80;;;5.30;97.30;;;;;;4957265;28;20261;-86
2024/03/07 08:21:34;;;;;;;3.57;3.37;;;5.30;97.30;;;;;;4961683;28;20194;-84
2024/03/07 08:24:03;;;;;;;3.53;2.93;;;5.40;97.30;;;;;;4959305;28;20449;-86
2024/03/07 08:26:28;;;;;;;3.60;2.87;;;5.50;97.30;;;;;;4957182;28;20652;-86
2024/03/07 08:28:56;;;;;;;3.43;3.23;;;5.50;97.30;;;;;;4959213;28;20461;-88
2024/03/07 08:31:22;;;;;;;3.40;2.63;;;5.60;97.30;;;;;;4953569;28;21670;-86
2024/03/07 08:33:47;;;;;;;5.23;2.60;;;5.80;97.30;;;;;;4962617;28;20495;-89
2024/03/07 08:36:13;;;;;;;5.23;2.57;;;5.80;97.30;;;;;;4968009;28;20229;-88
2024/03/07 08:38:39;;;;;;;4.93;2.33;;;5.80;97.30;;;;;;4985731;28;20558;-86
2024/03/07 08:41:04;;;;;;;5.83;2.57;;;5.90;97.30;;;;;;4970297;28;20214;-86
2024/03/07 08:43:30;;;;;;;4.20;2.47;;;5.80;97.30;;;;;;4956289;28;20501;-85
2024/03/07 08:45:56;;;;;;;1.37;1.17;;;5.80;97.00;;;;;;4957990;28;20194;-85
2024/03/07 08:48:21;;;;;;;4.67;2.40;;;5.90;97.20;;;;;;4958233;28;20465;-86
2024/03/07 08:50:47;;;;;;;4.67;4.40;;;6.00;97.30;;;;;;4969259;28;20207;-90
2024/03/07 08:53:13;;;;;;;9.50;3.30;;;6.10;97.30;;;;;;4980093;28;20257;-87
2024/03/07 08:55:38;;;;;;;2.07;1.63;;;6.10;96.60;;;;;;4978484;28;20441;-87
2024/03/07 08:58:06;;;;;;;4.63;1.80;;;6.20;97.00;;;;;;4995633;28;20183;-88
2024/03/07 09:00:32;;;;;;;2.47;2.23;;;6.30;96.80;;;;;;4978134;28;20179;-88
2024/03/07 09:02:59;;;;;;;2.40;2.20;;;6.40;97.30;;;;;;4978684;28;20433;-90
2024/03/07 09:05:25;;;;;;;3.50;3.03;;;6.50;97.30;;;;;;4978428;28;20461;-88
2024/03/07 09:07:52;;;;;;;2.23;2.03;;;6.50;96.70;;;;;;4978592;28;20493;-91
2024/03/07 09:10:19;;;;;;;3.23;2.30;;;6.20;95.00;;;;;;4979958;28;20421;-89
2024/03/07 09:12:45;;;;;;;4.00;3.83;;;5.80;94.90;;;;;;4979748;28;20462;-88
2024/03/07 09:15:12;;;;;;;2.63;1.57;;;5.60;95.50;;;;;;4987533;28;20925;-85
2024/03/07 09:17:38;;;;;;;6.53;3.37;;;5.50;96.00;;;;;;4966902;28;20433;-86
2024/03/07 09:20:06;;;;;;;7.43;3.07;;;5.50;96.80;;;;;;4954348;28;20426;-87
2024/03/07 09:22:34;;;;;;;2.90;2.70;;;5.60;97.00;;;;;;4974837;28;20457;-86
2024/03/07 09:25:01;;;;;;;1.80;1.70;;;5.80;96.60;;;;;;4957326;28;21002;-81
2024/03/07 09:27:28;;;;;;;7.13;2.10;;;5.80;96.30;;;;;;4960328;28;21009;-83
2024/03/07 09:29:54;;;;;;;3.50;2.70;;;6.10;96.70;;;;;;4961711;28;20414;-84
2024/03/07 09:32:21;;;;;;;9.60;3.03;;;6.30;94.80;;;;;;4956621;28;20458;-86
2024/03/07 09:34:47;;;;;;;2.33;2.13;;;6.40;94.10;;;;;;4955632;28;20183;-86
2024/03/07 09:37:13;;;;;;;7.13;3.23;;;6.20;93.40;;;;;;4955808;28;20431;-86
2024/03/07 09:39:38;;;;;;;2.33;2.13;;;6.20;93.80;;;;;;4957971;28;20191;-86
2024/03/07 09:42:10;;;;;;;1.80;1.70;;;6.10;93.90;;;;;;4959112;28;21059;-86
2024/03/07 09:44:42;;;;;;;4.00;3.80;;;6.00;93.00;;;;;;4957430;28;20350;-86
2024/03/07 09:47:08;;;;;;;3.07;2.07;;;5.90;94.10;;;;;;4956565;28;20436;-86
2024/03/07 09:49:36;;;;;;;1.80;1.70;;;6.00;93.70;;;;;;4956962;28;20942;-86
2024/03/07 09:52:11;;;;;;;4.47;2.93;;;6.00;92.80;;;;;;4956790;28;20728;-87
2024/03/07 09:54:37;;;;;;;2.27;2.07;;;5.90;93.00;;;;;;4945586;28;20426;-86
2024/03/07 09:57:07;;;;;;;6.27;3.20;;;5.80;92.90;;;;;;4954758;28;20410;-86
2024/03/07 09:59:40;;;;;;;3.47;2.30;;;5.80;93.10;;;;;;4947390;28;20450;-86
2024/03/07 10:02:09;;;;;;;6.40;2.57;;;5.90;94.10;;;;;;4947025;28;20504;-87
2024/03/07 10:04:41;;;;;;;6.57;2.77;;;6.10;94.30;;;;;;4958400;28;20456;-87
2024/03/07 10:07:13;;;;;;;3.53;2.67;;;6.20;94.30;;;;;;4956805;28;20465;-87
2024/03/07 10:09:41;;;;;;;2.00;1.67;;;6.30;94.60;;;;;;4954485;28;20679;-86
2024/03/07 10:12:09;;;;;;;2.27;1.87;;;6.40;94.70;;;;;;4946489;28;20546;-86
2024/03/07 10:14:38;;;;;;;5.33;3.97;;;6.30;94.50;;;;;;4955582;28;20492;-87
2024/03/07 10:17:09;;;;;;;4.53;2.63;;;6.30;94.90;;;;;;4963924;28;20414;-86
2024/03/07 10:19:37;;;;;;;6.40;3.53;;;6.30;94.90;;;;;;4958993;28;20421;-86
2024/03/07 10:22:06;;;;;;;3.70;3.50;;;6.40;95.10;;;;;;4959024;28;20445;-87
2024/03/07 10:24:58;;;;;;;7.80;4.07;;;6.40;94.10;;;;;;4957860;28;20480;-87
2024/03/07 10:27:28;;;;;;;10.20;4.30;;;6.50;94.40;;;;;;4931686;28;20533;-89
2024/03/07 10:29:57;;;;;;;9.00;4.17;;;6.30;93.00;;;;;;4967625;28;20433;-85
2024/03/07 10:33:20;;;;;;;4.23;3.03;;;6.30;93.40;;;;;;4961863;28;20448;-88
2024/03/07 10:36:41;;;;;;;;;;;;;;;;;;;;;
2024/03/07 10:42:50;;;;;;;;;;;;;;;;;;;;;
2024/03/07 10:46:00;;;;;;;3.60;2.47;;;7.00;92.40;;;;;;4825645;29;20900;-86
2024/03/07 10:48:47;;;;;;;1.80;1.70;;;7.20;90.10;;;;;;4835511;29;20480;-88
2024/03/07 10:51:43;;;;;;;;;;;;;;;;;;;;;
2024/03/07 10:54:57;;;;;;;1.63;1.57;;;6.90;89.30;;;;;;4829730;29;21067;-86
2024/03/07 10:57:59;;;;;;;1.60;1.50;;;7.30;89.40;;;;;;4820238;29;20438;-87
2024/03/07 11:00:43;;;;;;;3.70;2.20;;;7.70;89.30;;;;;;4889358;29;20528;-86
2024/03/07 11:03:20;;;;;;;1.93;1.83;;;7.80;88.80;;;;;;4889690;29;20623;-86
2024/03/07 11:06:00;;;;;;;6.17;4.60;;;7.80;89.60;;;;;;4923638;29;20470;-87
2024/03/07 11:11:28;;;;;;;1.70;1.50;;;7.30;89.30;;;;;;4922024;29;20494;-87
2024/03/07 11:14:29;;;;;;;3.40;3.20;;;7.10;89.90;;;;;;4916139;29;20745;-86
2024/03/07 11:17:59;;;;;;;6.40;3.30;;;7.10;90.20;;;;;;4928776;29;20473;-87
2024/03/07 11:20:29;;;;;;;8.23;2.30;;;7.20;90.10;;;;;;4922408;29;20439;-86
2024/03/07 11:23:30;;;;;;;2.80;2.70;;;7.20;91.10;;;;;;4902248;29;20441;-87
2024/03/07 11:26:56;;;;;;;4.73;3.40;;;7.10;92.30;;;;;;4898778;29;20437;-87
2024/03/07 11:30:09;;;;;;;4.20;2.60;;;6.90;92.60;;;;;;4890931;29;20441;-87
2024/03/07 11:36:49;;;;;;;7.80;2.43;;;6.70;93.80;;;;;;4848630;29;20464;-86
2024/03/07 11:45:44;;;;;;;4.63;4.00;;;6.30;93.60;;;;;;4874740;29;20446;-86
2024/03/07 11:48:41;;;;;;;7.60;3.10;;;6.20;94.10;;;;;;4936504;29;20471;-87
2024/03/07 11:51:25;;;;;;;2.93;2.73;;;6.30;95.00;;;;;;4890332;29;20490;-88
2024/03/07 11:53:58;;;;;;;4.27;1.90;;;6.40;93.80;;;;;;4958114;28;20432;-86
2024/03/07 11:56:30;;;;;;;7.23;3.60;;;6.40;94.10;;;;;;4976593;28;20444;-87
2024/03/07 11:58:59;;;;;;;2.67;2.47;;;6.40;93.90;;;;;;4975554;28;20481;-89
2024/03/07 12:01:48;;;;;;;1.70;1.60;;;6.40;93.00;;;;;;4971371;28;20475;-87
2024/03/07 12:06:51;;;;;;;1.87;1.77;;;6.50;92.90;;;;;;4950339;28;20514;-59
2024/03/07 12:09:23;;;;;;;5.90;3.00;;;6.50;92.50;;;;;;4952177;28;20572;-59
2024/03/07 12:11:52;;;;;;;4.33;4.03;;;6.50;92.30;;;;;;4945172;28;20458;-59
2024/03/07 12:14:19;;;;;;;14.17;4.10;;;6.50;93.00;;;;;;4952097;28;20427;-59
2024/03/07 12:16:45;;;;;;;8.83;2.10;;;6.40;92.90;;;;;;4942645;28;20465;-59
2024/03/07 12:19:11;;;;;;;5.23;3.67;;;6.40;93.70;;;;;;4944976;28;20428;-59
2024/03/07 12:21:38;;;;;;;8.40;3.63;;;6.30;93.60;;;;;;4957251;28;20454;-59
2024/03/07 12:24:18;;;;;;;4.73;3.33;;;6.30;93.80;;;;;;4944889;28;20357;-59
2024/03/07 12:26:43;;;;;;;4.43;2.67;;;6.60;94.70;;;;;;4955289;28;20501;-59
2024/03/07 12:29:12;;;;;;;3.70;2.60;;;7.10;93.90;;;;;;4956264;28;20550;-59
2024/03/07 12:31:39;;;;;;;2.33;2.13;;;7.50;92.20;;;;;;4947763;28;20629;-58
2024/03/07 12:34:05;;;;;;;1.60;1.50;;;7.70;90.20;;;;;;4943607;28;20430;-59
2024/03/07 12:36:45;;;;;;;4.60;4.30;;;8.00;89.00;;;;;;4952688;28;20415;-59
2024/03/07 12:39:25;;;;;;;2.70;2.50;;;8.50;89.50;;;;;;4951359;28;20274;-59
2024/03/07 12:41:55;;;;;;;4.70;3.80;;;9.00;86.20;;;;;;4950938;28;20970;-59
2024/03/07 12:44:21;;;;;;;4.93;3.50;;;9.10;85.80;;;;;;4965105;28;20433;-60
2024/03/07 12:46:56;;;;;;;11.50;4.80;;;8.90;85.40;;;;;;4942297;28;20442;-59
2024/03/07 12:49:26;;;;;;;14.47;4.93;;;8.60;86.00;;;;;;4943801;28;20878;-59
2024/03/07 12:51:53;;;;;;;2.63;2.10;;;8.30;86.40;;;;;;4947002;28;20432;-59
2024/03/07 12:54:19;;;;;;;4.63;3.07;;;8.00;87.50;;;;;;4955375;28;20476;-59
2024/03/07 12:56:45;;;;;;;2.47;2.27;;;7.90;87.80;;;;;;4948870;28;20810;-59
2024/03/07 12:59:10;;;;;;;3.77;2.87;;;7.70;88.50;;;;;;4949428;28;20198;-59
2024/03/07 13:01:44;;;;;;;2.70;2.17;;;7.60;88.80;;;;;;4940809;28;20215;-59
2024/03/07 13:04:10;;;;;;;3.60;2.43;;;7.50;89.50;;;;;;4951141;28;20391;-59
2024/03/07 13:06:35;;;;;;;8.40;3.30;;;7.40;90.00;;;;;;4977112;28;20473;-59
2024/03/07 13:09:02;;;;;;;11.27;4.17;;;7.30;89.80;;;;;;4952259;28;20488;-59
2024/03/07 13:11:29;;;;;;;4.40;2.17;;;7.20;90.00;;;;;;4944791;28;20203;-59
2024/03/07 13:13:56;;;;;;;5.53;3.57;;;7.20;90.40;;;;;;4952503;28;20426;-59
2024/03/07 13:16:27;;;;;;;2.93;2.53;;;7.20;90.80;;;;;;4973137;28;20479;-59
2024/03/07 13:18:55;;;;;;;3.43;3.30;;;7.10;90.40;;;;;;4980727;28;20413;-59
2024/03/07 13:21:21;;;;;;;11.67;2.50;;;7.10;90.50;;;;;;4962125;28;20448;-59
2024/03/07 13:23:47;;;;;;;2.80;2.63;;;7.20;90.40;;;;;;4967837;28;20515;-59
2024/03/07 13:26:17;;;;;;;10.03;3.00;;;7.20;90.00;;;;;;4959376;28;20925;-59
2024/03/07 13:28:44;;;;;;;9.47;4.60;;;7.60;90.10;;;;;;4966778;28;20256;-59
2024/03/07 13:31:11;;;;;;;13.27;5.07;;;8.10;88.90;;;;;;4940404;28;20983;-59
2024/03/07 13:33:37;;;;;;;7.17;2.50;;;8.40;88.00;;;;;;4960213;28;20426;-59
2024/03/07 13:36:04;;;;;;;2.33;2.13;;;8.50;86.70;;;;;;4952372;28;20811;-59
2024/03/07 13:38:30;;;;;;;6.67;2.57;;;8.70;87.90;;;;;;4976638;28;20440;-59
2024/03/07 13:40:57;;;;;;;1.63;1.53;;;9.20;86.80;;;;;;4976706;28;20446;-61
2024/03/07 13:43:22;;;;;;;2.67;2.47;;;9.60;84.90;;;;;;4976806;28;20484;-58
2024/03/07 13:45:48;;;;;;;3.70;2.40;;;10.10;85.00;;;;;;4962208;28;20425;-59
2024/03/07 13:48:16;;;;;;;2.60;2.40;;;10.60;83.80;;;;;;4969426;28;20213;-59
2024/03/07 13:50:44;;;;;;;2.80;2.60;;;10.40;82.00;;;;;;4969354;28;20281;-59
2024/03/07 13:53:29;;;;;;;5.50;2.97;;;9.80;83.10;;;;;;4969692;28;20925;-59
2024/03/07 13:56:12;;;;;;;5.93;3.23;;;9.50;84.40;;;;;;4966881;28;20417;-59
2024/03/07 13:59:02;;;;;;;4.70;3.23;;;9.50;84.60;;;;;;4952481;28;20511;-58
2024/03/07 14:02:03;;;;;;;6.40;3.10;;;9.50;84.30;;;;;;4969501;28;20434;-59
2024/03/07 14:04:52;;;;;;;7.73;3.40;;;9.40;84.30;;;;;;4971067;28;20851;-59
2024/03/07 14:08:06;;;;;;;5.10;4.80;;;9.50;85.00;;;;;;4969229;28;20449;-59
2024/03/07 14:11:11;;;;;;;3.17;2.43;;;10.00;83.70;;;;;;4969443;28;21001;-59
2024/03/07 14:14:00;;;;;;;5.00;3.07;;;10.40;83.50;;;;;;4944985;28;20430;-59
2024/03/07 14:17:04;;;;;;;5.90;4.53;;;10.90;82.50;;;;;;4969377;28;20410;-59
2024/03/07 14:20:18;;;;;;;7.57;4.23;;;10.80;81.90;;;;;;4976308;28;20508;-59
2024/03/07 14:23:18;;;;;;;3.57;2.50;;;10.40;83.20;;;;;;4943968;28;20875;-58
2024/03/07 14:26:04;;;;;;;2.17;2.00;;;9.80;83.30;;;;;;4951537;28;20465;-59
2024/03/07 14:28:52;;;;;;;5.07;3.07;;;9.40;84.10;;;;;;4953854;28;20469;-59
2024/03/07 14:31:17;;;;;;;4.60;4.30;;;9.20;83.80;;;;;;4972813;28;20767;-59
2024/03/07 14:34:33;;;;;;;3.03;2.83;;;8.90;85.00;;;;;;4951630;28;20432;-58
2024/03/07 14:37:18;;;;;;;3.90;2.73;;;8.70;85.10;;;;;;4968810;28;20206;-59
2024/03/07 14:39:49;;;;;;;5.10;4.80;;;9.60;85.70;;;;;;4944007;28;20782;-59
2024/03/07 14:42:15;;;;;;;7.03;4.07;;;10.30;83.70;;;;;;4952311;28;20451;-59
2024/03/07 14:44:46;;;;;;;4.37;2.30;;;10.10;82.90;;;;;;4979016;28;20504;-59
2024/03/07 14:47:14;;;;;;;3.40;3.10;;;9.70;83.20;;;;;;4948567;28;20489;-59
2024/03/07 14:49:40;;;;;;;4.43;2.40;;;9.40;83.40;;;;;;4979785;28;20457;-59
2024/03/07 14:52:10;;;;;;;5.63;3.40;;;9.10;84.20;;;;;;4955033;28;20441;-59
2024/03/07 14:54:38;;;;;;;8.80;4.57;;;9.40;84.50;;;;;;4955009;28;20441;-59
2024/03/07 14:57:04;;;;;;;3.30;3.03;;;9.70;83.50;;;;;;4973028;28;20935;-59
2024/03/07 14:59:30;;;;;;;3.90;3.70;;;9.80;83.70;;;;;;4972598;28;20426;-59
2024/03/07 15:01:58;;;;;;;3.40;2.60;;;10.10;83.60;;;;;;4972168;28;20462;-59
2024/03/07 15:04:24;;;;;;;3.83;3.63;;;10.30;83.20;;;;;;4975501;28;20414;-59
2024/03/07 15:06:52;;;;;;;4.10;3.60;;;10.70;82.30;;;;;;4981159;28;20414;-59
2024/03/07 15:09:19;;;;;;;4.80;3.57;;;11.20;82.60;;;;;;4965104;28;20500;-59
2024/03/07 15:11:44;;;;;;;5.33;2.80;;;11.30;81.20;;;;;;4970356;28;20437;-59
2024/03/07 15:14:10;;;;;;;4.63;3.00;;;11.00;81.00;;;;;;4948705;28;20501;-59
2024/03/07 15:16:40;;;;;;;7.07;3.83;;;10.50;81.30;;;;;;4971316;28;20233;-59
2024/03/07 15:19:12;;;;;;;4.53;3.00;;;9.90;82.20;;;;;;4967010;28;20181;-59
2024/03/07 15:21:38;;;;;;;5.70;3.03;;;9.70;83.50;;;;;;4960894;28;20500;-58
2024/03/07 15:24:04;;;;;;;4.10;3.77;;;9.60;83.50;;;;;;4972157;28;20974;-59
2024/03/07 15:26:34;;;;;;;7.63;3.83;;;9.30;83.40;;;;;;4971968;28;20425;-59
2024/03/07 15:29:03;;;;;;;4.10;3.30;;;9.20;84.20;;;;;;4954332;28;20478;-59
2024/03/07 15:31:28;;;;;;;4.00;3.80;;;9.10;84.00;;;;;;4965595;28;20789;-58
2024/03/07 15:33:54;;;;;;;3.20;3.00;;;8.90;84.60;;;;;;4960951;28;20488;-59
2024/03/07 15:36:25;;;;;;;3.80;3.60;;;8.80;84.40;;;;;;4971435;28;20205;-59
2024/03/07 15:38:51;;;;;;;2.70;2.17;;;8.60;84.90;;;;;;4969679;28;20183;-59
2024/03/07 15:41:16;;;;;;;4.50;3.53;;;8.50;86.30;;;;;;4949617;28;20537;-60
2024/03/07 15:43:45;;;;;;;5.70;4.73;;;8.30;86.10;;;;;;4968497;28;20186;-59
2024/03/07 15:46:12;;;;;;;4.60;2.70;;;8.50;87.20;;;;;;4971218;28;20209;-59
2024/03/07 15:48:38;;;;;;;6.70;3.23;;;9.50;86.20;;;;;;4962192;28;20911;-59
2024/03/07 15:51:05;;;;;;;7.00;3.63;;;10.20;84.00;;;;;;4964741;28;20761;-59
2024/03/07 15:53:33;;;;;;;3.77;3.57;;;10.50;82.50;;;;;;4949934;28;20423;-59
2024/03/07 15:55:59;;;;;;;4.20;3.93;;;10.30;82.40;;;;;;4971606;28;20460;-59
2024/03/07 15:58:25;;;;;;;2.60;2.40;;;10.00;83.20;;;;;;4963381;28;20418;-60
2024/03/07 16:00:50;;;;;;;2.87;2.67;;;10.10;83.20;;;;;;4952265;28;20955;-59
2024/03/07 16:03:16;;;;;;;3.37;2.77;;;10.10;83.00;;;;;;4962528;28;20191;-59
2024/03/07 16:05:46;;;;;;;4.03;3.83;;;9.70;83.50;;;;;;4947663;28;20515;-59
2024/03/07 16:08:14;;;;;;;3.57;3.37;;;9.30;84.70;;;;;;4968401;28;20217;-59
2024/03/07 16:10:41;;;;;;;3.97;3.77;;;9.40;84.90;;;;;;4951994;28;20525;-59
2024/03/07 16:13:08;;;;;;;12.00;4.50;;;9.60;84.40;;;;;;4969184;28;20501;-59
2024/03/07 16:15:35;;;;;;;3.33;3.10;;;10.00;84.20;;;;;;4969117;28;20910;-59
2024/03/07 16:18:01;;;;;;;4.80;3.17;;;10.30;83.20;;;;;;4947869;28;20505;-59
2024/03/07 16:20:28;;;;;;;1.90;1.80;;;10.30;82.20;;;;;;4970464;28;20537;-59
2024/03/07 16:22:55;;;;;;;7.23;3.03;;;9.90;82.70;;;;;;4947450;28;20936;-59
2024/03/07 16:25:21;;;;;;;9.60;3.50;;;9.50;83.40;;;;;;4965025;28;20414;-59
2024/03/07 16:27:47;;;;;;;6.90;5.63;;;9.00;84.60;;;;;;4953253;28;21071;-59
2024/03/07 16:30:18;;;;;;;8.40;3.10;;;8.60;85.40;;;;;;4965100;28;20179;-60
2024/03/07 16:32:58;;;;;;;3.00;2.80;;;8.20;87.00;;;;;;4970972;28;20410;-59
2024/03/07 16:35:24;;;;;;;4.80;4.03;;;7.90;87.70;;;;;;4946776;28;20433;-59
2024/03/07 16:37:54;;;;;;;3.60;3.20;;;7.60;88.70;;;;;;4946540;28;20430;-59
2024/03/07 16:40:27;;;;;;;5.30;2.90;;;7.40;89.60;;;;;;4944368;28;20431;-59
2024/03/07 16:42:58;;;;;;;5.10;2.50;;;7.20;89.80;;;;;;4963821;28;20414;-60
2024/03/07 16:45:30;;;;;;;5.33;2.93;;;7.20;89.90;;;;;;4967681;28;20418;-60
2024/03/07 16:47:59;;;;;;;5.17;3.93;;;7.10;90.20;;;;;;4948611;28;20520;-59
2024/03/07 16:50:27;;;;;;;7.33;4.20;;;7.00;90.50;;;;;;4942400;28;21076;-60
2024/03/07 16:52:53;;;;;;;5.50;3.90;;;6.90;90.60;;;;;;4965424;28;20419;-60
2024/03/07 16:55:19;;;;;;;5.57;4.67;;;6.90;91.10;;;;;;4956529;28;20783;-60
2024/03/07 16:57:47;;;;;;;10.90;5.90;;;6.80;91.30;;;;;;4944140;28;20422;-60
2024/03/07 17:00:17;;;;;;;10.60;3.77;;;6.70;91.70;;;;;;4941189;28;20476;-60
2024/03/07 17:02:46;;;;;;;21.57;8.00;;;6.70;92.10;;;;;;4961328;28;20451;-60
2024/03/07 17:05:18;;;;;;;6.43;3.43;;;6.70;92.20;;;;;;4943681;28;20470;-60
2024/03/07 17:07:44;;;;;;;9.33;3.73;;;6.70;92.70;;;;;;4961218;28;20496;-60
2024/03/07 17:10:13;;;;;;;7.90;3.50;;;6.70;92.80;;;;;;4956095;28;20427;-60
2024/03/07 17:12:47;;;;;;;5.27;3.27;;;6.60;92.60;;;;;;4958562;28;20510;-60
2024/03/07 17:15:15;;;;;;;3.17;2.97;;;6.60;93.00;;;;;;4958576;28;20428;-60
2024/03/07 17:17:43;;;;;;;5.50;3.07;;;6.50;92.70;;;;;;4968380;28;20429;-60
2024/03/07 17:20:09;;;;;;;7.17;6.40;;;6.50;92.80;;;;;;4962039;28;20418;-61
2024/03/07 17:22:36;;;;;;;5.23;3.97;;;6.40;93.00;;;;;;4944358;28;20478;-60
2024/03/07 17:25:04;;;;;;;17.33;8.83;;;6.40;93.50;;;;;;4942149;28;20549;-60
2024/03/07 17:27:30;;;;;;;10.30;6.80;;;6.40;93.40;;;;;;4948319;28;20465;-60
2024/03/07 17:29:55;;;;;;;5.90;5.23;;;6.30;93.70;;;;;;4974709;28;20425;-60
2024/03/07 17:32:21;;;;;;;2.40;2.10;;;6.30;93.90;;;;;;4951647;28;20445;-60
2024/03/07 17:34:47;;;;;;;6.13;4.60;;;6.30;94.10;;;;;;4979564;28;20210;-60
2024/03/07 17:37:16;;;;;;;4.30;2.47;;;6.20;94.50;;;;;;4967366;28;20167;-60
2024/03/07 17:39:42;;;;;;;6.17;3.37;;;6.20;94.50;;;;;;4946754;28;20496;-60
2024/03/07 17:42:11;;;;;;;6.07;3.60;;;6.20;94.70;;;;;;4964451;28;20437;-60
2024/03/07 17:44:38;;;;;;;6.77;2.90;;;6.10;94.70;;;;;;4946539;28;20797;-60
2024/03/07 17:47:07;;;;;;;5.03;3.90;;;6.10;95.40;;;;;;4961940;28;20420;-60
2024/03/07 17:49:33;;;;;;;4.33;3.00;;;6.00;95.40;;;;;;4958541;28;20445;-60
2024/03/07 17:51:59;;;;;;;2.27;2.07;;;5.80;95.40;;;;;;4953437;28;20754;-61
2024/03/07 17:54:27;;;;;;;7.63;3.93;;;5.70;95.60;;;;;;4962566;28;20182;-60
2024/03/07 17:56:53;;;;;;;5.83;3.80;;;5.60;96.50;;;;;;4956560;28;20240;-60
2024/03/07 17:59:21;;;;;;;3.53;2.70;;;5.60;96.90;;;;;;4956753;28;21004;-60
2024/03/07 18:01:46;;;;;;;18.80;4.37;;;5.60;97.20;;;;;;4979046;28;20910;-60
2024/03/07 18:04:12;;;;;;;2.23;2.07;;;5.60;97.30;;;;;;4959927;28;20447;-60
2024/03/07 18:06:38;;;;;;;6.73;4.13;;;5.60;97.30;;;;;;4952306;28;20624;-60
2024/03/07 18:09:14;;;;;;;5.57;4.23;;;5.50;97.30;;;;;;4976328;28;20490;-60
2024/03/07 18:11:40;;;;;;;6.03;3.93;;;5.50;97.30;;;;;;4979673;28;22046;-60
2024/03/07 18:14:06;;;;;;;3.47;2.87;;;5.60;97.30;;;;;;4978681;28;20508;-60
2024/03/07 18:16:32;;;;;;;5.03;3.00;;;5.60;97.10;;;;;;4955352;28;20193;-60
2024/03/07 18:18:57;;;;;;;5.23;4.93;;;5.60;97.10;;;;;;4979902;28;20182;-60
2024/03/07 18:21:23;;;;;;;5.83;4.43;;;5.60;97.30;;;;;;4980820;28;20512;-60
2024/03/07 18:23:49;;;;;;;16.50;5.20;;;5.60;97.30;;;;;;4978107;28;20764;-60
2024/03/07 18:26:14;;;;;;;5.10;3.67;;;5.50;97.30;;;;;;4981523;28;20205;-60
2024/03/07 18:28:40;;;;;;;3.77;3.13;;;5.30;97.30;;;;;;4965545;28;20221;-60
2024/03/07 18:31:14;;;;;;;3.80;3.60;;;5.30;97.30;;;;;;4958204;28;20228;-60
2024/03/07 18:33:42;;;;;;;17.37;3.57;;;5.30;97.30;;;;;;4978031;28;20196;-60
2024/03/07 18:36:12;;;;;;;4.60;4.30;;;5.30;97.30;;;;;;4984582;28;20512;-60
2024/03/07 18:38:38;;;;;;;7.80;3.47;;;5.30;97.30;;;;;;4970519;28;20426;-60